Lamco Airport

Jump to: basic info | weather | comments

Related pages: nearby airports | nearby navaids | notams | map

Basic information (top)

Codes: UCN GLLB
Location: lon 5.867000, lat -10.050000, elev 30 ft / 9 m msl
Status: small_airport
Scheduled airline service: no
Links: Wikipedia Mobile

Weather (top)

Current conditions for Roberts International Airport 29nm (53km) NW (rec'd 2014/09/01 12:00Z):

GLRB 011200Z 24007KT 9999 FEW005 BKN012 FEW023CB 26/25 Q1015 RMK CB-SW

Airport forecast for Roberts International Airport 29nm (53km) NW (rec'd 2014/09/01 06:51Z):

TAF TAF GLRB 010400Z 0106/0212 23010KT 9999 BKN016 
      TEMPO 0107/0111 04006KT 9999 BKN014 
      TEMPO 0112/0116 21010KT 8000 RA/SHRA BKN012 
      BECMG 0118/0120 20008KT 9000

Latest comments (top)

No comments yet for Lamco Airport

More... (top)

See also NOTAMs and nearby airports and navaids, or visit the Lamco Airport page at the main OurAirports website..